ADDS METAR Data INFO
IDs: Format: Raw Decoded Include TAF

Data at: 1522 UTC 18 Jun 2018

PANA 181456Z AUTO 07006KT 10SM -RA OVC070 09/09 A2945 RMK AO2 SLP972 P0000 60000 T00940089 56014
PANA 181356Z AUTO 06006KT 10SM -RA OVC060 09/08 A2946 RMK AO2 RAB40 SLP975 P0000 T00940083
PANA 181156Z AUTO 03007KT 10SM OVC060 09/08 A2949 RMK AO2 SLP986 60001 70015 T00940083 10106 20089 58022
PANA 180956Z AUTO 02006KT 10SM OVC048 09/08 A2954 RMK AO2 SLP002 T00890083
PANA 180856Z AUTO 02005KT 10SM OVC046 09/08 A2956 RMK AO2 RAE03 SLP008 P0000 60001 T00940083 401220089 58014
PANA 180756Z AUTO 04004KT 10SM -RA OVC048 09/09 A2958 RMK AO2 SLP015 P0001 T00940089
PANA 180656Z AUTO 00000KT 10SM -RA OVC070 10/08 A2959 RMK AO2 SLP018 P0000 T01000078
PANA 180556Z AUTO 16004KT 10SM -RA OVC060 10/08 A2960 RMK AO2 SLP022 P0001 60003 T01000078 10122 20100 58005
PANA 180356Z AUTO 16007KT 10SM -RA FEW035 BKN045 OVC060 11/08 A2961 RMK AO2 SLP026 P0000 T01060078
PANA 180256Z AUTO 15007KT 10SM -RA SCT021 BKN045 OVC055 11/08 A2961 RMK AO2 RAE14B35 SLP027 P0000 60001 T01110078 58001
PANA 180227Z AUTO VRB03KT 10SM SCT018 BKN025 OVC080 12/09 A2961 RMK AO2 RAE14 P0000
PANA 180056Z AUTO 13004KT 10SM -RA FEW014 BKN055 OVC070 11/09 A2962 RMK AO2 SLP029 P0001 T01110089
PANA 172356Z AUTO VRB03KT 10SM -RA FEW014 SCT025 OVC047 11/09 A2962 RMK AO2 SLP028 P0001 60009 T01060094 10111 20100 51003
PANA 172353Z AUTO 12005KT 10SM -RA SCT014 BKN028 OVC047 11/09 A2962 RMK AO2 P0001
PANA 172304Z AUTO 12003KT 10SM -RA SCT012 BKN040 OVC055 11/09 A2961 RMK AO2 P0000
PANA 172256Z AUTO VRB03KT 10SM -RA BKN012 BKN017 OVC050 11/09 A2961 RMK AO2 SLP026 P0001 T01060094
PANA 172245Z AUTO VRB04KT 10SM -RA BKN012 BKN022 OVC060 11/09 A2961 RMK AO2 P0001
PANA 172156Z AUTO 11006KT 10SM -RA SCT014 BKN024 OVC048 11/09 A2961 RMK AO2 SLP025 P0001 T01060089
PANA 172147Z AUTO 11005KT 10SM -RA FEW013 BKN026 OVC050 11/09 A2961 RMK AO2 P0000
PANA 172139Z AUTO 11008KT 10SM -RA SCT013 BKN032 OVC049 11/09 A2961 RMK AO2 P0000
PANA 172136Z AUTO 11007KT 10SM -RA BKN013 BKN018 OVC047 11/09 A2961 RMK AO2 P0000
PANA 172056Z AUTO 12005KT 10SM -RA SCT015 BKN022 OVC048 11/09 A2960 RMK AO2 SLP024 P0002 60006 T01060094 51012
PANA 172049Z AUTO 11004KT 10SM -RA SCT011 BKN022 OVC055 11/09 A2960 RMK AO2 P0001
PANA 171956Z AUTO 11007KT 10SM -RA FEW009 SCT036 OVC055 10/09 A2959 RMK AO2 SLP020 P0003 T01000089
PANA 171948Z AUTO 10006KT 10SM -RA SCT009 BKN026 OVC044 10/09 A2959 RMK AO2 P0003
PANA 171942Z AUTO 11007KT 10SM -RA FEW025 BKN037 OVC060 10/09 A2959 RMK AO2 P0003
PANA 171914Z AUTO 10007KT 10SM -RA FEW011 BKN027 OVC050 10/09 A2958 RMK AO2 P0001
PANA 171856Z AUTO 10008KT 10SM -RA SCT011 BKN044 OVC055 10/09 A2958 RMK AO2 SLP016 P0001 T01000089
PANA 171756Z AUTO 10006KT 10SM -RA FEW041 OVC060 10/09 A2957 RMK AO2 SLP012 P0000 60002 T01000089 10100 20089 53009
PANA 171656Z AUTO 10005KT 10SM -RA BKN043 OVC050 10/08 A2956 RMK AO2 RAB32 SLP008 P0000 T01000083
PANA 171456Z AUTO 10008KT 10SM -RA BKN045 OVC055 09/08 A2954 RMK AO2 SLP002 P0001 60002 T00940083 51005
PANA 171356Z AUTO 10006KT 10SM -RA OVC043 09/08 A2954 RMK AO2 SLP001 P0000 T00890083
PANA 171256Z AUTO 12006KT 10SM -RA FEW040 BKN060 OVC075 09/08 A2953 RMK AO2 SLP999 P0001 T00890083
PANA 171156Z AUTO 12005KT 10SM -RA BKN060 OVC075 09/08 A2952 RMK AO2 RAB17 SLP997 P0001 60007 70071 T00890083 10117 20089 53009
PANA 171056Z AUTO 15008KT 10SM SCT055 BKN090 09/08 A2951 RMK AO2 RAE42 SLP994 P0000 T00940083
PANA 170956Z AUTO 17008KT 10SM -RA OVC065 09/08 A2951 RMK AO2 SLP991 P0001 T00940083
PANA 170856Z AUTO 18009KT 10SM -RA BKN042 OVC070 10/08 A2950 RMK AO2 SLP988 P0001 60005 T01000083 401280100 51013
PANA 170756Z AUTO 18007KT 10SM -RA FEW032 BKN060 OVC070 10/09 A2949 RMK AO2 SLP986 P0001 T01000094
PANA 170734Z AUTO 19007KT 10SM -RA SCT016 BKN032 OVC060 11/09 A2949 RMK AO2 P0001
PANA 170723Z AUTO 19010KT 10SM -RA SCT016 BKN026 OVC070 11/09 A2948 RMK AO2 P0001
PANA 170656Z AUTO 20004KT 10SM -RA BKN047 OVC060 11/09 A2947 RMK AO2 SLP980 P0003 T01060094
PANA 170637Z AUTO 20006KT 9SM -RA FEW007 BKN031 OVC055 11/09 A2947 RMK AO2 P0002
PANA 170632Z AUTO 20006KT 7SM -RA FEW007 BKN013 OVC046 11/09 A2947 RMK AO2 P0002
PANA 170611Z AUTO 09004KT 8SM -RA FEW007 BKN028 OVC050 11/11 A2946 RMK AO2 P0000
PANA 170603Z AUTO 08003KT 10SM -RA FEW007 BKN030 OVC050 11/11 A2946 RMK AO2 P0000
PANA 170556Z AUTO 08004KT 4SM -RA BR FEW007 BKN028 OVC048 12/11 A2946 RMK AO2 SLP975 P0005 60012 T01170106 10122 20117 55000
PANA 170547Z AUTO 08004KT 3SM RA BR SCT009 SCT023 OVC032 12/11 A2946 RMK AO2 P0004
PANA 170540Z AUTO 08003KT 8SM -RA SCT009 BKN029 OVC049 12/11 A2946 RMK AO2 P0002
PANA 170456Z AUTO 00000KT 10SM -RA BKN055 OVC070 12/11 A2945 RMK AO2 SLP973 P0000 T01170106
PANA 170356Z AUTO 32003KT 10SM -RA BKN041 OVC049 12/11 A2945 RMK AO2 SLP973 P0001 T01170106